createdAt,value
2018-02-03T00:01:12.597Z,10.17
2018-02-03T00:03:40.870Z,9.23
2018-02-03T00:06:09.133Z,9.23
2018-02-03T00:08:36.647Z,9.80
2018-02-03T00:11:04.127Z,9.07
2018-02-03T00:13:31.648Z,10.23
2018-02-03T00:15:59.188Z,10.90
2018-02-03T00:18:27.448Z,10.23
2018-02-03T00:20:55.716Z,10.40
2018-02-03T00:23:23.248Z,10.77
2018-02-03T00:25:50.759Z,9.80
2018-02-03T00:28:19.014Z,9.90
2018-02-03T00:30:46.592Z,11.63
2018-02-03T00:33:15.603Z,12.63
2018-02-03T00:35:43.112Z,10.83
2018-02-03T00:38:10.601Z,10.87
2018-02-03T00:40:38.900Z,10.23
2018-02-03T00:43:06.440Z,10.67
2018-02-03T00:45:34.732Z,11.00
2018-02-03T00:48:02.225Z,10.63
2018-02-03T00:50:29.734Z,10.73
2018-02-03T00:52:57.989Z,11.43
2018-02-03T00:55:25.580Z,11.70
2018-02-03T00:57:53.076Z,11.63
2018-02-03T01:00:20.584Z,12.37
2018-02-03T01:02:48.844Z,12.37
2018-02-03T01:05:16.314Z,12.23
2018-02-03T01:07:44.592Z,12.40
2018-02-03T01:10:12.844Z,14.23
2018-02-03T01:12:41.860Z,12.57
2018-02-03T01:15:09.436Z,12.13
2018-02-03T01:17:37.686Z,12.93
2018-02-03T01:20:05.191Z,14.50
2018-02-03T01:22:32.663Z,12.00
2018-02-03T01:25:00.184Z,13.47
2018-02-03T01:27:28.439Z,13.20
2018-02-03T01:29:56.016Z,13.47
2018-02-03T01:32:24.270Z,12.33
2018-02-03T01:34:51.852Z,13.10
2018-02-03T01:37:20.133Z,12.80
2018-02-03T01:39:48.383Z,15.23
2018-02-03T01:42:15.963Z,14.70
2018-02-03T01:44:44.233Z,13.40
2018-02-03T01:47:12.499Z,14.47
2018-02-03T01:49:40.079Z,12.70
2018-02-03T01:52:08.328Z,14.40
2018-02-03T01:54:36.643Z,14.20
2018-02-03T01:57:04.192Z,12.60
2018-02-03T01:59:32.466Z,13.53
2018-02-03T02:02:00.727Z,14.30
2018-02-03T02:04:28.217Z,14.53
2018-02-03T02:06:55.768Z,13.50
2018-02-03T02:09:24.023Z,14.00
2018-02-03T02:11:52.325Z,14.70
2018-02-03T02:14:19.881Z,15.40
2018-02-03T02:16:47.370Z,14.30
2018-02-03T02:19:14.884Z,15.87
2018-02-03T02:21:43.166Z,15.07
2018-02-03T02:24:11.443Z,14.37
2018-02-03T02:26:39.692Z,14.03
2018-02-03T02:29:07.420Z,16.07
2018-02-03T02:31:34.931Z,15.83
2018-02-03T02:34:03.184Z,14.30
2018-02-03T02:36:30.693Z,16.30
2018-02-03T02:38:58.189Z,17.47
2018-02-03T02:41:25.795Z,15.83
2018-02-03T02:43:54.059Z,17.80
2018-02-03T02:46:21.551Z,15.57
2018-02-03T02:48:49.051Z,14.65
2018-02-03T02:51:16.543Z,16.50
2018-02-03T02:53:44.819Z,15.77
2018-02-03T02:56:13.099Z,15.40
2018-02-03T02:58:41.378Z,15.07
2018-02-03T03:01:09.649Z,14.73
2018-02-03T03:03:37.998Z,18.53
2018-02-03T03:06:05.496Z,16.40
2018-02-03T03:08:32.999Z,16.23
2018-02-03T03:11:00.508Z,15.07
2018-02-03T03:13:28.751Z,15.97
2018-02-03T03:15:57.784Z,13.97
2018-02-03T03:18:25.339Z,15.17
2018-02-03T03:20:53.617Z,15.43
2018-02-03T03:23:21.897Z,16.10
2018-02-03T03:25:49.380Z,14.27
2018-02-03T03:28:16.920Z,16.90
2018-02-03T03:30:44.407Z,14.93
2018-02-03T03:33:11.916Z,15.70
2018-02-03T03:35:40.189Z,16.10
2018-02-03T03:38:07.674Z,18.67
2018-02-03T03:40:35.171Z,16.97
2018-02-03T03:43:02.668Z,17.17
2018-02-03T03:45:30.954Z,15.03
2018-02-03T03:47:59.223Z,16.80
2018-02-03T03:50:27.515Z,17.27
2018-02-03T03:52:56.216Z,16.73
2018-02-03T03:55:23.758Z,16.97
2018-02-03T03:57:52.035Z,16.73
2018-02-03T04:00:19.606Z,15.80
2018-02-03T04:02:47.153Z,16.03
2018-02-03T04:05:15.428Z,16.87
2018-02-03T04:07:42.944Z,16.53
2018-02-03T04:10:10.450Z,16.63
2018-02-03T04:12:37.952Z,18.30
2018-02-03T04:15:05.444Z,19.20
2018-02-03T04:17:33.031Z,17.67
2018-02-03T04:20:00.526Z,19.50
2018-02-03T04:22:28.015Z,18.37
2018-02-03T04:24:55.527Z,19.97
2018-02-03T04:27:23.014Z,18.40
2018-02-03T04:29:50.498Z,20.83
2018-02-03T04:32:18.790Z,19.17
2018-02-03T04:34:47.068Z,19.03
2018-02-03T04:37:14.558Z,22.00
2018-02-03T04:39:42.046Z,19.90
2018-02-03T04:42:09.548Z,20.97
2018-02-03T04:44:37.034Z,21.83
2018-02-03T04:47:04.588Z,21.63
2018-02-03T04:49:32.094Z,21.43
2018-02-03T04:52:00.387Z,22.17
2018-02-03T04:54:28.648Z,21.60
2018-02-03T04:56:57.648Z,21.23
2018-02-03T04:59:25.939Z,21.20
2018-02-03T05:01:53.441Z,22.52
2018-02-03T05:04:20.914Z,22.07
2018-02-03T05:06:48.414Z,22.77
2018-02-03T05:09:16.666Z,21.17
2018-02-03T05:11:44.948Z,22.97
2018-02-03T05:14:13.244Z,22.97
2018-02-03T05:16:40.787Z,24.00
2018-02-03T05:19:08.273Z,23.87
2018-02-03T05:21:35.775Z,23.30
2018-02-03T05:24:03.374Z,22.83
2018-02-03T05:26:30.880Z,23.12
2018-02-03T05:28:58.395Z,23.00
2018-02-03T05:31:26.666Z,24.73
2018-02-03T05:33:54.927Z,22.37
2018-02-03T05:36:23.232Z,25.77
2018-02-03T05:38:50.722Z,24.70
2018-02-03T05:41:19.057Z,25.00
2018-02-03T05:43:47.326Z,23.35
2018-02-03T05:46:15.596Z,24.23
2018-02-03T05:48:43.111Z,23.83
2018-02-03T05:51:10.612Z,23.80
2018-02-03T05:53:39.006Z,24.37
2018-02-03T05:56:07.278Z,23.50
2018-02-03T05:58:35.664Z,22.48
2018-02-03T06:01:03.957Z,23.62
2018-02-03T06:03:31.622Z,22.87
2018-02-03T06:05:59.127Z,23.98
2018-02-03T06:08:26.719Z,24.20
2018-02-03T06:10:55.018Z,22.73
2018-02-03T06:13:22.523Z,21.08
2018-02-03T06:15:50.033Z,21.80
2018-02-03T06:18:17.587Z,21.15
2018-02-03T06:20:45.137Z,21.50
2018-02-03T06:23:13.427Z,20.88
2018-02-03T06:25:40.911Z,20.93
2018-02-03T06:28:08.413Z,19.45
2018-02-03T06:30:36.668Z,20.60
2018-02-03T06:33:04.263Z,20.83
2018-02-03T06:35:32.528Z,20.67
2018-02-03T06:38:00.781Z,19.73
2018-02-03T06:40:29.039Z,20.02
2018-02-03T06:42:56.546Z,21.90
2018-02-03T06:45:24.807Z,19.90
2018-02-03T06:47:53.109Z,20.50
2018-02-03T06:50:20.627Z,20.48
2018-02-03T06:52:48.125Z,20.20
2018-02-03T06:55:15.612Z,19.87
2018-02-03T06:57:43.133Z,20.62
2018-02-03T07:00:11.419Z,20.35
2018-02-03T07:02:38.975Z,21.20
2018-02-03T07:05:06.464Z,22.67
2018-02-03T07:07:33.976Z,21.05
2018-02-03T07:10:01.465Z,22.53
2018-02-03T07:12:28.955Z,25.45
2018-02-03T07:14:56.453Z,22.23
2018-02-03T07:17:24.722Z,20.52
2018-02-03T07:19:52.302Z,22.35
2018-02-03T07:22:19.803Z,22.60
2018-02-03T07:24:48.651Z,19.40
2018-02-03T07:27:16.899Z,21.17
2018-02-03T07:29:46.077Z,20.05
2018-02-03T07:32:13.588Z,21.95
2018-02-03T07:34:42.800Z,21.60
2018-02-03T07:37:10.344Z,21.75
2018-02-03T07:39:37.887Z,23.57
2018-02-03T07:42:06.875Z,20.90
2018-02-03T07:44:35.175Z,20.37
2018-02-03T07:47:03.986Z,22.62
2018-02-03T07:49:31.495Z,20.58
2018-02-03T07:51:59.763Z,22.15
2018-02-03T07:54:29.034Z,23.67
2018-02-03T07:56:56.556Z,21.30
2018-02-03T07:59:24.835Z,20.55
2018-02-03T08:01:52.392Z,21.57
2018-02-03T08:04:19.908Z,24.23
2018-02-03T08:06:47.396Z,21.43
2018-02-03T08:09:15.683Z,23.62
2018-02-03T08:11:45.386Z,22.08
2018-02-03T08:14:18.623Z,20.42
2018-02-03T08:16:46.111Z,22.13
2018-02-03T08:19:15.383Z,21.37
2018-02-03T08:21:43.187Z,21.50
2018-02-03T08:24:11.488Z,23.20
2018-02-03T08:26:39.743Z,18.57
2018-02-03T08:29:07.235Z,20.00
2018-02-03T08:31:38.572Z,20.30
2018-02-03T08:34:06.150Z,19.17
2018-02-03T08:36:33.700Z,20.83
2018-02-03T08:39:01.252Z,17.70
2018-02-03T08:41:28.805Z,19.95
2018-02-03T08:43:59.753Z,19.90
2018-02-03T08:46:29.274Z,19.60
2018-02-03T08:49:01.451Z,18.23
2018-02-03T08:51:29.078Z,20.42
2018-02-03T08:53:57.363Z,19.17
2018-02-03T08:56:27.620Z,19.67
2018-02-03T08:58:55.143Z,18.33
2018-02-03T09:01:23.412Z,21.13
2018-02-03T09:03:51.686Z,18.37
2018-02-03T09:06:19.200Z,18.67
2018-02-03T09:08:46.725Z,18.00
2018-02-03T09:11:14.266Z,19.67
2018-02-03T09:13:42.540Z,18.30
2018-02-03T09:16:10.797Z,18.93
2018-02-03T09:18:38.422Z,20.03
2018-02-03T09:21:05.923Z,20.20
2018-02-03T09:23:33.411Z,19.93
2018-02-03T09:26:00.923Z,18.90
2018-02-03T09:28:28.410Z,22.83
2018-02-03T09:30:56.680Z,19.40
2018-02-03T09:33:24.940Z,18.07
2018-02-03T09:35:52.424Z,19.93
2018-02-03T09:38:19.946Z,16.60
2018-02-03T09:40:47.435Z,18.30
2018-02-03T09:43:15.700Z,17.33
2018-02-03T09:45:43.182Z,18.27
2018-02-03T09:48:10.761Z,17.27
2018-02-03T09:50:38.332Z,18.67
2018-02-03T09:53:05.819Z,16.77
2018-02-03T09:55:33.336Z,15.57
2018-02-03T09:58:00.871Z,19.80
2018-02-03T10:00:29.151Z,23.47
2018-02-03T10:02:57.433Z,19.27
2018-02-03T10:05:24.995Z,16.33
2018-02-03T10:07:52.489Z,18.90
2018-02-03T10:10:19.980Z,16.23
2018-02-03T10:12:49.440Z,16.20
2018-02-03T10:15:16.928Z,15.63
2018-02-03T10:17:44.474Z,16.73
2018-02-03T10:20:12.091Z,15.17
2018-02-03T10:22:40.424Z,16.27
2018-02-03T10:25:07.986Z,15.20
2018-02-03T10:27:35.484Z,15.40
2018-02-03T10:30:03.818Z,14.97
2018-02-03T10:32:31.817Z,23.00
2018-02-03T10:35:00.077Z,17.27
2018-02-03T10:37:27.578Z,14.47
2018-02-03T10:39:55.104Z,15.40
2018-02-03T10:42:22.602Z,15.97
2018-02-03T10:44:50.095Z,16.60
2018-02-03T10:47:17.695Z,18.23
2018-02-03T10:49:45.964Z,17.10
2018-02-03T10:52:14.268Z,16.10
2018-02-03T10:54:41.814Z,17.17
2018-02-03T10:57:11.899Z,16.90
2018-02-03T10:59:39.408Z,16.77
2018-02-03T11:02:06.990Z,16.20
2018-02-03T11:04:34.481Z,15.33
2018-02-03T11:07:01.984Z,14.90
2018-02-03T11:09:29.530Z,14.93
2018-02-03T11:11:57.073Z,14.83
2018-02-03T11:14:25.521Z,14.43
2018-02-03T11:16:53.092Z,12.67
2018-02-03T11:19:20.689Z,12.40
2018-02-03T11:21:48.980Z,13.17
2018-02-03T11:24:16.537Z,14.20
2018-02-03T11:26:44.016Z,13.40
2018-02-03T11:29:11.536Z,12.00
2018-02-03T11:31:39.792Z,13.20
2018-02-03T11:34:07.315Z,12.90
2018-02-03T11:36:34.829Z,14.30
2018-02-03T11:39:03.078Z,12.27
2018-02-03T11:41:30.569Z,13.80
2018-02-03T11:44:04.924Z,12.80
2018-02-03T11:46:32.498Z,11.47
2018-02-03T11:48:59.987Z,10.87
2018-02-03T11:51:29.837Z,10.03
2018-02-03T11:53:57.347Z,12.10
2018-02-03T11:56:24.860Z,10.70
2018-02-03T11:58:52.394Z,13.17
2018-02-03T12:01:20.639Z,10.73
2018-02-03T12:03:48.908Z,10.93
2018-02-03T12:06:17.968Z,10.23
2018-02-03T12:08:45.457Z,10.87
2018-02-03T12:11:12.956Z,12.73
2018-02-03T12:13:41.235Z,10.50
2018-02-03T12:16:09.864Z,11.87
2018-02-03T12:18:37.361Z,11.20
2018-02-03T12:21:05.686Z,10.67
2018-02-03T12:23:33.211Z,10.63
2018-02-03T12:26:01.600Z,10.20
2018-02-03T12:28:29.898Z,9.90
2018-02-03T12:30:57.391Z,10.97
2018-02-03T12:33:24.883Z,9.77
2018-02-03T12:35:53.196Z,11.33
2018-02-03T12:38:20.964Z,10.57
2018-02-03T12:40:48.486Z,10.57
2018-02-03T12:43:16.736Z,9.23
2018-02-03T12:45:44.397Z,9.40
2018-02-03T12:48:11.856Z,11.13
2018-02-03T12:50:39.366Z,12.80
2018-02-03T12:53:07.872Z,9.43
2018-02-03T12:55:36.252Z,7.20
2018-02-03T12:58:03.751Z,7.30
2018-02-03T13:00:31.997Z,8.03
2018-02-03T13:02:59.603Z,6.27
2018-02-03T13:05:27.075Z,6.37
2018-02-03T13:07:55.151Z,5.43
2018-02-03T13:10:22.642Z,6.17
2018-02-03T13:12:50.120Z,5.90
2018-02-03T13:15:17.620Z,4.33
2018-02-03T13:17:45.185Z,5.37
2018-02-03T13:20:12.711Z,3.73
2018-02-03T13:22:40.200Z,4.10
2018-02-03T13:25:07.797Z,3.40
2018-02-03T13:27:35.304Z,3.77
2018-02-03T13:30:02.780Z,3.03
2018-02-03T13:32:30.278Z,2.43
2018-02-03T13:34:57.802Z,2.93
2018-02-03T13:37:25.310Z,6.50
2018-02-03T13:39:52.841Z,4.33
2018-02-03T13:42:20.342Z,3.43
2018-02-03T13:44:48.597Z,3.00
2018-02-03T13:47:16.083Z,3.33
2018-02-03T13:49:44.339Z,2.90
2018-02-03T13:52:11.822Z,3.03
2018-02-03T13:54:39.332Z,3.23
2018-02-03T13:57:06.813Z,2.73
2018-02-03T13:59:34.314Z,5.33
2018-02-03T14:02:01.852Z,3.20
2018-02-03T14:04:29.338Z,3.20
2018-02-03T14:06:56.845Z,3.33
2018-02-03T14:09:24.330Z,3.30
2018-02-03T14:11:51.827Z,2.87
2018-02-03T14:14:19.349Z,3.33
2018-02-03T14:16:46.838Z,2.83
2018-02-03T14:19:14.350Z,2.77
2018-02-03T14:21:42.627Z,3.90
2018-02-03T14:24:16.581Z,4.00
2018-02-03T14:26:44.109Z,4.20
2018-02-03T14:29:11.598Z,3.77
2018-02-03T14:31:39.446Z,4.43
2018-02-03T14:34:06.938Z,4.70
2018-02-03T14:36:34.547Z,4.70
2018-02-03T14:39:03.166Z,4.43
2018-02-03T14:41:30.648Z,4.83
2018-02-03T14:43:58.141Z,5.17
2018-02-03T14:46:26.399Z,5.63
2018-02-03T14:48:53.904Z,5.03
2018-02-03T14:51:24.196Z,5.20
2018-02-03T14:53:52.712Z,5.27
2018-02-03T14:56:20.209Z,4.77
2018-02-03T14:58:47.703Z,4.90
2018-02-03T15:01:15.964Z,4.50
2018-02-03T15:03:43.540Z,5.00
2018-02-03T15:06:11.821Z,5.13
2018-02-03T15:08:40.075Z,5.63
2018-02-03T15:11:07.654Z,5.10
2018-02-03T15:13:35.928Z,5.87
2018-02-03T15:16:04.200Z,5.87
2018-02-03T15:18:32.449Z,4.97
2018-02-03T15:21:00.768Z,5.00
2018-02-03T15:23:28.257Z,5.03
2018-02-03T15:25:55.773Z,5.63
2018-02-03T15:28:24.015Z,5.67
2018-02-03T15:30:51.523Z,5.53
2018-02-03T15:33:19.009Z,6.13
2018-02-03T15:35:46.499Z,6.17
2018-02-03T15:38:14.012Z,7.78
2018-02-03T15:40:41.590Z,6.40
2018-02-03T15:43:09.068Z,6.80
2018-02-03T15:45:36.555Z,8.87
2018-02-03T15:48:04.819Z,6.80
2018-02-03T15:50:33.229Z,7.57
2018-02-03T15:53:00.760Z,7.70
2018-02-03T15:55:29.015Z,8.63
2018-02-03T15:57:56.612Z,8.37
2018-02-03T16:00:24.889Z,6.97
2018-02-03T16:02:53.160Z,8.50
2018-02-03T16:05:20.719Z,8.83
2018-02-03T16:07:48.967Z,8.20
2018-02-03T16:10:16.461Z,9.07
2018-02-03T16:12:44.711Z,8.80
2018-02-03T16:15:12.301Z,10.30
2018-02-03T16:17:39.865Z,9.82
2018-02-03T16:20:07.357Z,10.47
2018-02-03T16:22:34.858Z,10.38
2018-02-03T16:25:03.115Z,9.63
2018-02-03T16:27:30.631Z,8.73
2018-02-03T16:29:58.131Z,9.75
2018-02-03T16:32:27.317Z,10.00
2018-02-03T16:34:54.827Z,9.20
2018-02-03T16:37:23.067Z,9.17
2018-02-03T16:39:50.567Z,9.73
2018-02-03T16:42:18.711Z,9.57
2018-02-03T16:44:46.284Z,11.63
2018-02-03T16:47:14.544Z,8.87
2018-02-03T16:49:42.038Z,8.93
2018-02-03T16:52:09.544Z,9.23
2018-02-03T16:54:37.143Z,8.45
2018-02-03T16:57:06.194Z,9.73
2018-02-03T16:59:33.795Z,10.38
2018-02-03T17:02:02.130Z,9.10
2018-02-03T17:04:29.656Z,9.13
2018-02-03T17:06:57.186Z,10.38
2018-02-03T17:09:25.391Z,11.48
2018-02-03T17:11:53.041Z,11.48
2018-02-03T17:14:21.387Z,10.88
2018-02-03T17:16:49.707Z,11.50
2018-02-03T17:19:22.721Z,10.27
2018-02-03T17:22:00.597Z,11.65
2018-02-03T17:24:28.543Z,11.43
2018-02-03T17:26:56.915Z,12.48
2018-02-03T17:29:25.176Z,10.43
2018-02-03T17:31:52.752Z,22.50
2018-02-03T17:34:21.020Z,13.35
2018-02-03T17:36:54.991Z,12.60
2018-02-03T17:39:22.699Z,15.90
2018-02-03T17:41:51.214Z,12.18
2018-02-03T17:44:18.887Z,13.30
2018-02-03T17:46:52.116Z,31.77
2018-02-03T17:49:19.707Z,15.75
2018-02-03T17:51:47.261Z,11.63
2018-02-03T17:54:15.513Z,11.60
2018-02-03T17:59:50.296Z,12.13
2018-02-03T18:02:17.812Z,12.95
2018-02-03T18:04:45.339Z,12.82
2018-02-03T18:07:13.013Z,13.45
2018-02-03T18:09:40.534Z,13.70
2018-02-03T18:12:08.028Z,12.95
2018-02-03T18:14:35.548Z,15.63
2018-02-03T18:17:03.055Z,14.02
2018-02-03T18:19:30.560Z,14.10
2018-02-03T18:21:58.831Z,13.57
2018-02-03T18:24:28.139Z,15.80
2018-02-03T18:26:56.509Z,19.05
2018-02-03T18:29:24.809Z,15.40
2018-02-03T18:31:52.361Z,15.45
2018-02-03T18:34:19.997Z,14.38
2018-02-03T18:36:47.472Z,14.43
2018-02-03T18:39:15.875Z,14.50
2018-02-03T18:41:43.372Z,15.25
2018-02-03T18:44:10.854Z,15.70
2018-02-03T18:46:39.698Z,16.37
2018-02-03T18:49:07.238Z,15.98
2018-02-03T18:51:34.763Z,15.38
2018-02-03T18:54:02.382Z,15.48
2018-02-03T18:56:29.988Z,17.33
2018-02-03T18:58:58.680Z,16.05
2018-02-03T19:01:27.594Z,16.73
2018-02-03T19:03:55.173Z,18.80
2018-02-03T19:06:22.695Z,17.75
2018-02-03T19:08:50.972Z,15.13
2018-02-03T19:11:19.273Z,16.58
2018-02-03T19:13:46.777Z,15.13
2018-02-03T19:16:14.920Z,16.33
2018-02-03T19:18:42.852Z,16.37
2018-02-03T19:21:10.411Z,15.52
2018-02-03T19:23:38.864Z,15.02
2018-02-03T19:26:06.450Z,17.08
2018-02-03T19:28:34.076Z,16.90
2018-02-03T19:31:01.643Z,15.02
2018-02-03T19:33:29.947Z,15.70
2018-02-03T19:35:58.231Z,25.02
2018-02-03T19:38:26.534Z,23.45
2018-02-03T19:40:54.096Z,15.50
2018-02-03T19:43:24.248Z,14.98
2018-02-03T19:45:51.785Z,14.93
2018-02-03T19:48:19.305Z,15.95
2018-02-03T19:50:46.860Z,15.68
2018-02-03T19:53:14.403Z,14.75
2018-02-03T19:55:42.670Z,16.30
2018-02-03T19:58:10.228Z,16.92
2018-02-03T20:00:37.740Z,15.35
2018-02-03T20:03:05.239Z,15.88
2018-02-03T20:05:33.515Z,15.15
2018-02-03T20:08:01.083Z,19.10
2018-02-03T20:10:28.673Z,19.33
2018-02-03T20:12:56.264Z,16.85
2018-02-03T20:15:23.761Z,16.80
2018-02-03T20:17:52.161Z,17.08
2018-02-03T20:20:20.444Z,16.17
2018-02-03T20:22:48.699Z,17.85
2018-02-03T20:25:16.212Z,17.27
2018-02-03T20:27:43.741Z,18.73
2018-02-03T20:30:12.021Z,18.10
2018-02-03T20:32:39.579Z,19.65
2018-02-03T20:35:07.081Z,17.95
2018-02-03T20:37:34.652Z,16.37
2018-02-03T20:40:02.165Z,16.70
2018-02-03T20:42:29.680Z,17.70
2018-02-03T20:44:58.940Z,15.73
2018-02-03T20:47:26.435Z,17.92
2018-02-03T20:49:54.799Z,16.45
2018-02-03T20:52:22.287Z,16.05
2018-02-03T20:54:50.593Z,15.82
2018-02-03T20:57:18.086Z,16.90
2018-02-03T20:59:45.573Z,15.98
2018-02-03T21:02:13.083Z,25.15
2018-02-03T21:04:40.587Z,18.80
2018-02-03T21:07:08.180Z,18.25
2018-02-03T21:09:35.682Z,16.48
2018-02-03T21:12:03.176Z,19.37
2018-02-03T21:14:31.451Z,16.52
2018-02-03T21:16:59.721Z,16.48
2018-02-03T21:19:27.251Z,18.60
2018-02-03T21:21:54.747Z,16.48
2018-02-03T21:24:23.013Z,15.63
2018-02-03T21:26:51.314Z,15.52
2018-02-03T21:29:20.124Z,15.77
2018-02-03T21:31:47.648Z,16.48
2018-02-03T21:34:15.895Z,15.13
2018-02-03T21:36:43.388Z,16.73
2018-02-03T21:39:11.740Z,16.17
2018-02-03T21:41:39.228Z,15.55
2018-02-03T21:44:07.521Z,17.92
2018-02-03T21:46:35.007Z,16.20
2018-02-03T21:49:02.494Z,15.35
2018-02-03T21:51:31.539Z,17.70
2018-02-03T21:53:59.063Z,16.45
2018-02-03T21:56:27.342Z,19.05
2018-02-03T21:58:55.603Z,17.40
2018-02-03T22:01:24.602Z,15.48
2018-02-03T22:03:52.876Z,14.93
2018-02-03T22:06:20.396Z,18.33
2018-02-03T22:08:47.903Z,18.95
2018-02-03T22:11:16.187Z,16.92
2018-02-03T22:13:44.536Z,17.12
2018-02-03T22:16:12.084Z,17.20
2018-02-03T22:18:39.920Z,20.17
2018-02-03T22:21:07.482Z,18.30
2018-02-03T22:23:34.984Z,17.33
2018-02-03T22:26:03.405Z,18.52
2018-02-03T22:28:30.907Z,17.90
2018-02-03T22:30:58.402Z,16.75
2018-02-03T22:33:26.708Z,19.08
2018-02-03T22:35:54.830Z,18.40
2018-02-03T22:38:22.317Z,17.17
2018-02-03T22:40:50.663Z,17.35
2018-02-03T22:43:18.157Z,19.02
2018-02-03T22:45:46.446Z,18.12
2018-02-03T22:48:14.019Z,18.25
2018-02-03T22:50:41.526Z,18.12
2018-02-03T22:53:09.031Z,18.08
2018-02-03T22:55:36.528Z,16.73
2018-02-03T22:58:04.055Z,18.55
2018-02-03T23:00:35.653Z,16.90
2018-02-03T23:02:59.316Z,21.37
2018-02-03T23:05:26.888Z,17.92
2018-02-03T23:07:56.211Z,16.98
2018-02-03T23:10:24.550Z,17.00
2018-02-03T23:12:52.236Z,15.77
2018-02-03T23:15:20.615Z,18.62
2018-02-03T23:17:48.137Z,16.23
2018-02-03T23:20:15.656Z,16.45
2018-02-03T23:22:43.163Z,19.02
2018-02-03T23:25:10.703Z,17.27
2018-02-03T23:27:38.190Z,19.02
2018-02-03T23:30:05.685Z,17.25
2018-02-03T23:32:33.954Z,16.87
2018-02-03T23:35:02.199Z,18.00
2018-02-03T23:37:29.695Z,18.45
2018-02-03T23:39:57.992Z,18.70
2018-02-03T23:42:25.485Z,17.12
2018-02-03T23:44:53.012Z,19.12
2018-02-03T23:47:20.496Z,19.02
2018-02-03T23:49:48.003Z,18.85
2018-02-03T23:52:16.331Z,17.75
2018-02-03T23:54:43.816Z,18.02
2018-02-03T23:57:11.416Z,19.17
2018-02-03T23:59:38.908Z,18.33
